Time;durP1;ratioP1;P1;durP2;ratioP2;P2;SDS_P1;SDS_P2;PMS_P1;PMS_P2;Temp;Humidity;BMP_temperature;BMP_pressure;BME280_temperature;BME280_humidity;BME280_pressure;Samples;Min_cycle;Max_cycle;Signal;HPM_P1;HPM_P2
2022/07/23 00:04:19;;;;;;;11.13;8.27;;;;;;;21.03;60.51;99927.41;10328248;28;20046;-78
2022/07/23 00:09:21;;;;;;;9.50;8.30;;;;;;;21.03;60.17;99929.22;10333139;28;20046;-77
2022/07/23 00:14:22;;;;;;;12.10;8.82;;;;;;;20.92;60.11;99930.38;10339611;28;20136;-78
2022/07/23 00:19:24;;;;;;;13.02;9.30;;;;;;;20.89;60.51;99921.84;10336595;28;20045;-78
2022/07/23 00:24:26;;;;;;;13.25;9.23;;;;;;;20.86;60.47;99924.84;10336177;28;20065;-78
2022/07/23 00:29:28;;;;;;;11.23;8.35;;;;;;;20.83;60.55;99920.66;10335767;28;20046;-78
2022/07/23 00:34:31;;;;;;;13.75;7.93;;;;;;;20.73;60.78;99935.03;10335792;28;20060;-78
2022/07/23 00:39:32;;;;;;;10.93;8.57;;;;;;;20.68;60.40;99914.22;10351829;28;20558;-78
2022/07/23 00:44:34;;;;;;;12.25;9.50;;;;;;;20.60;61.27;99900.09;10337440;28;20093;-78
2022/07/23 00:49:36;;;;;;;14.88;8.85;;;;;;;20.60;61.13;99910.72;10332611;28;20061;-78
2022/07/23 00:54:39;;;;;;;13.68;9.90;;;;;;;20.54;61.38;99914.78;10335044;28;20614;-78
2022/07/23 00:59:42;;;;;;;11.57;9.13;;;;;;;20.40;61.99;99919.84;10332200;28;20221;-78
2022/07/23 01:04:44;;;;;;;11.20;8.40;;;;;;;20.29;62.16;99913.75;10345244;28;20048;-78
2022/07/23 01:09:46;;;;;;;11.23;9.27;;;;;;;20.26;62.08;99921.19;10330003;28;20152;-78
2022/07/23 01:14:58;;;;;;;10.65;7.82;;;;;;;20.17;61.88;99914.16;10336401;28;20146;-77
2022/07/23 01:20:00;;;;;;;12.93;9.77;;;;;;;20.19;62.14;99920.16;10348333;28;20722;-78
2022/07/23 01:25:02;;;;;;;11.07;9.15;;;;;;;20.08;62.81;99915.91;10352388;28;20058;-77
2022/07/23 01:30:04;;;;;;;10.57;8.90;;;;;;;20.10;61.78;99921.06;10335744;28;20077;-78
2022/07/23 01:35:07;;;;;;;12.63;9.68;;;;;;;20.18;61.40;99926.44;10336007;28;20054;-78
2022/07/23 01:40:09;;;;;;;12.40;9.10;;;;;;;20.03;61.64;99928.00;10337350;28;20060;-78
2022/07/23 01:45:11;;;;;;;14.02;10.05;;;;;;;20.12;61.35;99906.66;10336398;28;20054;-78
2022/07/23 01:50:13;;;;;;;13.35;9.80;;;;;;;20.20;60.89;99896.09;10336754;28;20496;-78
2022/07/23 01:55:14;;;;;;;13.25;9.57;;;;;;;20.06;61.26;99914.41;10334473;28;20065;-78
2022/07/23 02:00:19;;;;;;;14.05;9.98;;;;;;;19.96;61.38;99908.31;10330454;28;20070;-77
2022/07/23 02:05:21;;;;;;;11.45;9.52;;;;;;;19.88;60.95;99892.31;10339816;28;20058;-78
2022/07/23 02:10:23;;;;;;;11.27;9.73;;;;;;;19.91;60.83;99878.75;10357664;28;20054;-78
2022/07/23 02:15:25;;;;;;;11.80;9.30;;;;;;;19.72;60.82;99866.44;10339507;28;20100;-77
2022/07/23 02:20:27;;;;;;;12.73;9.25;;;;;;;19.72;61.02;99887.69;10339416;28;20455;-78
2022/07/23 02:25:29;;;;;;;14.40;9.70;;;;;;;19.62;61.45;99894.88;10341612;28;20108;-78
2022/07/23 02:30:31;;;;;;;12.73;9.98;;;;;;;19.51;60.85;99894.22;10338611;28;20554;-78
2022/07/23 02:35:32;;;;;;;10.75;9.38;;;;;;;19.46;61.26;99902.63;10338123;28;20058;-77
2022/07/23 02:40:34;;;;;;;12.88;10.27;;;;;;;19.59;61.08;99919.03;10338472;28;20046;-78
2022/07/23 02:45:36;;;;;;;14.98;10.68;;;;;;;19.65;60.72;99923.75;10338193;28;20577;-77
2022/07/23 02:50:38;;;;;;;12.85;9.80;;;;;;;19.63;60.99;99916.91;10340191;28;20066;-78
2022/07/23 02:55:40;;;;;;;11.98;9.80;;;;;;;19.65;60.67;99925.53;10338072;28;20054;-78
2022/07/23 03:00:42;;;;;;;13.45;9.75;;;;;;;19.46;60.57;99927.34;10337601;28;20093;-78
2022/07/23 03:05:44;;;;;;;12.02;10.13;;;;;;;19.46;60.04;99906.13;10350502;28;20512;-78
2022/07/23 03:10:45;;;;;;;12.43;9.82;;;;;;;19.59;60.14;99910.22;10347413;28;21013;-76
2022/07/23 03:15:47;;;;;;;14.85;9.57;;;;;;;19.52;59.70;99917.13;10347929;28;20104;-77
2022/07/23 03:20:49;;;;;;;14.60;10.38;;;;;;;19.60;60.16;99927.84;10326644;28;20049;-77
2022/07/23 03:25:51;;;;;;;12.60;10.45;;;;;;;19.51;60.06;99923.41;10331440;28;20050;-77
2022/07/23 03:30:55;;;;;;;13.00;10.60;;;;;;;19.34;60.38;99938.28;10330323;28;20062;-77
2022/07/23 03:35:57;;;;;;;13.88;9.80;;;;;;;19.28;60.82;99949.47;10333734;28;20062;-77
2022/07/23 03:41:00;;;;;;;14.82;10.60;;;;;;;19.23;60.91;99941.16;10330879;28;20058;-77
2022/07/23 03:46:03;;;;;;;14.43;10.77;;;;;;;19.15;61.34;99946.34;10333893;28;20868;-77
2022/07/23 03:51:05;;;;;;;13.68;10.40;;;;;;;19.11;61.17;99940.50;10337382;28;20082;-77
2022/07/23 03:56:07;;;;;;;12.77;10.65;;;;;;;19.08;61.52;99945.25;10340733;28;20104;-77
2022/07/23 04:01:10;;;;;;;12.27;10.15;;;;;;;19.15;61.15;99949.00;10341118;28;20116;-77
2022/07/23 04:06:12;;;;;;;13.93;10.43;;;;;;;19.19;61.21;99937.13;10338459;28;20080;-77
2022/07/23 04:11:14;;;;;;;15.55;11.27;;;;;;;19.23;60.90;99951.75;10352480;28;20076;-77
2022/07/23 04:16:16;;;;;;;16.52;10.13;;;;;;;19.26;60.32;99951.44;10338549;28;20086;-77
2022/07/23 04:21:17;;;;;;;12.30;10.40;;;;;;;19.22;60.81;99964.16;10339430;28;20557;-77
2022/07/23 04:26:19;;;;;;;15.75;10.88;;;;;;;19.42;60.39;99965.75;10337992;28;20058;-77
2022/07/23 04:31:21;;;;;;;12.90;10.25;;;;;;;19.84;59.32;99965.28;10331984;28;20109;-77
2022/07/23 04:36:23;;;;;;;12.13;9.57;;;;;;;21.01;56.71;99966.63;10339660;28;20142;-77
2022/07/23 04:41:25;;;;;;;13.82;9.50;;;;;;;22.70;52.72;99958.28;10338149;28;20847;-77
2022/07/23 04:46:27;;;;;;;14.18;9.45;;;;;;;23.90;49.70;99958.94;10337359;28;20058;-77
2022/07/23 04:51:30;;;;;;;11.07;9.38;;;;;;;24.82;47.06;99956.06;10334709;28;20076;-77
2022/07/23 04:56:31;;;;;;;10.55;8.40;;;;;;;26.09;44.73;99956.56;10336300;28;20106;-77
2022/07/23 05:01:33;;;;;;;11.60;8.32;;;;;;;27.23;42.17;99957.13;10335695;28;21031;-78
2022/07/23 05:06:35;;;;;;;12.43;7.90;;;;;;;27.74;40.95;99944.16;10336320;28;20061;-78
2022/07/23 05:11:37;;;;;;;11.00;7.47;;;;;;;28.42;39.59;99948.47;10336590;28;20049;-78
2022/07/23 05:16:39;;;;;;;11.10;7.88;;;;;;;28.69;38.24;99964.41;10330782;28;20482;-78
2022/07/23 05:21:44;;;;;;;10.80;7.10;;;;;;;28.83;37.85;99954.44;10349157;28;20054;-78
2022/07/23 05:26:45;;;;;;;10.38;7.25;;;;;;;28.68;38.25;99965.47;10335018;28;20052;-78
2022/07/23 05:31:48;;;;;;;10.27;7.75;;;;;;;28.61;37.70;99963.78;10336653;28;20058;-78
2022/07/23 05:36:49;;;;;;;11.88;7.97;;;;;;;27.15;40.15;99971.56;10332901;28;20109;-78
2022/07/23 05:41:51;;;;;;;12.40;8.15;;;;;;;25.67;42.79;99973.38;10338400;28;20050;-78
2022/07/23 05:46:53;;;;;;;11.32;8.52;;;;;;;24.60;45.30;99978.31;10329678;28;20050;-79
2022/07/23 05:51:55;;;;;;;14.38;8.73;;;;;;;24.03;46.84;99986.72;10350006;28;20526;-78
2022/07/23 05:56:56;;;;;;;11.65;7.95;;;;;;;23.64;47.87;99996.63;10331362;28;20062;-78
2022/07/23 06:01:58;;;;;;;10.93;7.78;;;;;;;23.48;48.35;99997.53;10348343;28;20657;-78
2022/07/23 06:07:00;;;;;;;11.02;8.23;;;;;;;23.48;48.28;99994.00;10331350;28;20047;-78
2022/07/23 06:12:02;;;;;;;12.68;7.55;;;;;;;23.80;47.84;100012.56;10326284;28;20561;-78
2022/07/23 06:17:04;;;;;;;11.32;8.50;;;;;;;23.84;48.13;100011.19;10346117;28;20046;-78
2022/07/23 06:22:06;;;;;;;10.05;7.30;;;;;;;23.77;48.03;100020.09;10329138;28;20961;-78
2022/07/23 06:27:07;;;;;;;12.07;7.53;;;;;;;23.55;48.50;100024.38;10329809;28;20061;-78
2022/07/23 06:32:09;;;;;;;8.93;7.47;;;;;;;23.46;48.12;100020.88;10325388;28;20057;-79
2022/07/23 06:37:11;;;;;;;9.38;6.60;;;;;;;23.33;48.15;100020.53;10347676;28;20108;-78
2022/07/23 06:42:15;;;;;;;9.98;6.55;;;;;;;23.59;46.83;100025.69;10332133;28;20407;-78
2022/07/23 06:47:16;;;;;;;9.48;6.60;;;;;;;24.25;45.21;100033.22;10328221;28;20066;-78
2022/07/23 06:52:19;;;;;;;10.25;6.22;;;;;;;24.23;45.19;100027.22;10331853;28;20138;-78
2022/07/23 06:57:21;;;;;;;9.73;6.45;;;;;;;24.53;43.79;100033.53;10326347;28;20243;-79
2022/07/23 07:02:22;;;;;;;7.60;5.78;;;;;;;24.86;42.13;100037.63;10346356;28;20139;-79
2022/07/23 07:07:24;;;;;;;10.57;6.18;;;;;;;24.77;41.66;100039.56;10328152;28;21079;-78
2022/07/23 07:12:26;;;;;;;7.65;5.47;;;;;;;24.99;41.98;100048.56;10345022;28;20109;-79
2022/07/23 07:17:28;;;;;;;7.75;5.95;;;;;;;25.13;40.72;100049.59;10328984;28;20058;-79
2022/07/23 07:22:29;;;;;;;7.22;5.00;;;;;;;25.10;40.62;100058.84;10331552;28;20898;-79
2022/07/23 07:27:31;;;;;;;5.82;4.47;;;;;;;25.46;39.71;100062.50;10330829;28;20090;-79
2022/07/23 07:32:33;;;;;;;7.63;4.97;;;;;;;25.33;39.78;100066.78;10329024;28;20050;-79
2022/07/23 07:37:55;;;;;;;7.70;4.80;;;;;;;25.36;39.56;100063.78;10331017;28;20477;-79
2022/07/23 07:42:56;;;;;;;6.32;4.10;;;;;;;27.29;37.25;100061.09;10326054;28;20156;-79
2022/07/23 07:47:58;;;;;;;6.82;4.00;;;;;;;28.87;34.46;100061.56;10328337;28;20053;-79
2022/07/23 07:53:00;;;;;;;6.93;3.63;;;;;;;29.42;33.16;100064.91;10332444;28;20050;-79
2022/07/23 07:58:02;;;;;;;6.00;4.13;;;;;;;29.97;31.92;100069.72;10328765;28;20046;-79
2022/07/23 08:03:04;;;;;;;6.47;3.90;;;;;;;29.96;31.87;100073.47;10329743;28;20507;-79
2022/07/23 08:08:06;;;;;;;6.75;4.30;;;;;;;29.40;32.14;100078.56;10334569;28;20060;-80
2022/07/23 08:13:13;;;;;;;6.45;3.83;;;;;;;27.90;33.62;100083.59;10344026;28;20058;-79
2022/07/23 08:18:15;;;;;;;5.78;3.92;;;;;;;27.97;34.41;100089.84;10346942;28;21088;-80
2022/07/23 08:23:19;;;;;;;6.60;4.00;;;;;;;28.86;32.78;100081.47;10342269;28;20054;-80
2022/07/23 08:28:21;;;;;;;6.70;3.95;;;;;;;29.67;31.58;100074.78;10331667;28;20058;-80
2022/07/23 08:33:22;;;;;;;7.93;4.30;;;;;;;29.89;31.29;100075.31;10334791;28;20054;-80
2022/07/23 08:38:35;;;;;;;5.50;3.90;;;;;;;30.26;31.02;100084.53;10337831;28;20599;-80
2022/07/23 08:43:37;;;;;;;6.13;3.78;;;;;;;30.20;30.84;100078.13;10353775;28;20053;-80
2022/07/23 08:48:39;;;;;;;5.45;3.80;;;;;;;29.77;30.89;100090.50;10345041;28;20112;-80
2022/07/23 08:53:41;;;;;;;6.43;4.15;;;;;;;28.25;33.04;100091.41;10336802;28;20054;-80
2022/07/23 08:58:43;;;;;;;6.32;4.50;;;;;;;28.71;32.38;100080.78;10329630;28;20102;-80
2022/07/23 09:03:45;;;;;;;6.85;4.70;;;;;;;28.82;32.28;100090.13;10332041;28;20890;-80
2022/07/23 09:08:47;;;;;;;8.68;4.07;;;;;;;29.12;31.96;100090.56;10340976;28;21044;-80
2022/07/23 09:13:53;;;;;;;6.32;4.55;;;;;;;28.44;33.44;100095.19;10325745;28;20108;-80
2022/07/23 09:18:57;;;;;;;6.15;4.13;;;;;;;28.43;33.36;100098.09;10332152;28;20100;-80
2022/07/23 09:24:11;;;;;;;7.75;4.40;;;;;;;28.25;32.48;100094.09;10349418;28;20054;-80
2022/07/23 09:29:16;;;;;;;5.82;4.00;;;;;;;28.28;33.12;100092.84;10333878;28;20431;-79
2022/07/23 09:34:27;;;;;;;6.05;4.40;;;;;;;28.94;32.89;100089.34;10349594;28;20296;-79
2022/07/23 09:39:32;;;;;;;5.80;4.53;;;;;;;29.35;31.74;100086.41;10338337;28;20419;-80
2022/07/23 09:44:41;;;;;;;7.03;4.70;;;;;;;29.67;31.46;100092.81;10350260;28;20068;-79
2022/07/23 09:50:05;;;;;;;8.82;4.63;;;;;;;29.88;30.22;100087.16;10331733;28;20046;-80
2022/07/23 09:55:07;;;;;;;6.15;4.05;;;;;;;29.40;30.67;100099.31;10345669;28;20500;-80
2022/07/23 10:00:10;;;;;;;8.27;4.43;;;;;;;29.91;30.16;100096.69;10333337;28;20108;-80
2022/07/23 10:05:12;;;;;;;8.65;4.35;;;;;;;29.57;30.28;100097.81;10332478;28;20144;-79
2022/07/23 10:10:15;;;;;;;7.40;4.90;;;;;;;29.18;30.68;100093.25;10351806;28;20046;-80
2022/07/23 10:15:17;;;;;;;6.82;4.72;;;;;;;29.44;30.95;100087.88;10347973;28;20057;-81
2022/07/23 10:20:19;;;;;;;7.07;4.72;;;;;;;28.66;32.26;100098.56;10335921;28;20054;-81
2022/07/23 10:25:25;;;;;;;7.45;4.30;;;;;;;28.54;31.97;100092.97;10333283;28;20141;-81
2022/07/23 10:30:42;;;;;;;4.80;3.80;;;;;;;28.30;32.45;100096.19;10346812;28;20061;-81
2022/07/23 10:36:03;;;;;;;7.57;4.10;;;;;;;29.00;31.68;100079.59;10349338;28;20050;-81
2022/07/23 10:41:05;;;;;;;6.38;4.47;;;;;;;29.42;30.88;100071.09;10351076;28;20050;-81
2022/07/23 10:46:51;;;;;;;5.85;4.15;;;;;;;29.39;29.63;100078.78;10329856;28;20042;-81
2022/07/23 10:52:15;;;;;;;6.05;4.00;;;;;;;28.87;30.35;100072.31;10335116;28;20047;-81
2022/07/23 10:57:20;;;;;;;6.22;4.10;;;;;;;28.49;30.46;100075.75;10330194;28;20057;-81
2022/07/23 11:02:23;;;;;;;7.90;4.45;;;;;;;28.65;30.06;100061.91;10330821;28;20058;-81
2022/07/23 11:07:26;;;;;;;6.53;4.05;;;;;;;28.33;30.55;100063.53;10347253;28;20120;-81
2022/07/23 11:12:27;;;;;;;5.70;3.97;;;;;;;28.26;30.86;100052.69;10331945;28;20060;-81
2022/07/23 11:17:31;;;;;;;7.60;4.13;;;;;;;28.01;31.02;100048.06;10334010;28;20053;-81
2022/07/23 11:22:37;;;;;;;6.50;4.03;;;;;;;28.02;30.87;100047.88;10330240;28;20055;-80
2022/07/23 11:27:44;;;;;;;5.93;3.70;;;;;;;28.05;30.45;100041.28;10331544;28;20101;-81
2022/07/23 11:32:46;;;;;;;4.88;3.60;;;;;;;28.09;30.18;100047.91;10349968;28;20076;-80
2022/07/23 11:37:48;;;;;;;6.82;3.25;;;;;;;28.09;30.27;100047.91;10330728;28;20054;-81
2022/07/23 11:43:10;;;;;;;6.97;3.33;;;;;;;28.05;29.52;100052.84;10348120;28;20054;-81
2022/07/23 11:48:18;;;;;;;5.45;3.38;;;;;;;28.28;30.42;100033.66;10346815;28;20111;-81
2022/07/23 11:53:33;;;;;;;5.65;3.10;;;;;;;28.29;29.43;100038.06;10344693;28;20054;-81
2022/07/23 11:58:35;;;;;;;4.75;3.30;;;;;;;28.55;29.43;100031.88;10347246;28;20472;-81
2022/07/23 12:03:48;;;;;;;5.90;3.85;;;;;;;28.74;28.86;100033.78;10329930;28;20422;-80
2022/07/23 12:08:51;;;;;;;4.95;3.17;;;;;;;28.41;28.88;100038.28;10338241;28;20054;-80
2022/07/23 12:13:57;;;;;;;8.50;3.80;;;;;;;28.73;28.72;100029.41;10338088;28;20499;-80
2022/07/23 12:18:59;;;;;;;6.47;3.55;;;;;;;28.87;28.18;100037.31;10352118;28;20570;-81
2022/07/23 12:24:07;;;;;;;5.38;3.70;;;;;;;28.52;27.83;100027.78;10328619;28;20120;-81
2022/07/23 12:29:09;;;;;;;6.35;3.10;;;;;;;27.95;29.12;100030.06;10354731;28;20062;-81
2022/07/23 12:34:17;;;;;;;4.97;3.30;;;;;;;28.39;29.17;100025.03;10340589;28;20054;-81
2022/07/23 12:39:31;;;;;;;;;;;;;;;28.38;30.34;100023.38;10354328;28;20054;-81
2022/07/23 12:44:33;;;;;;;6.13;3.30;;;;;;;28.59;28.04;100031.28;10338321;28;19983;-82
2022/07/23 12:49:39;;;;;;;5.70;3.25;;;;;;;28.82;28.41;100023.66;10334580;28;20141;-81
2022/07/23 12:54:41;;;;;;;8.88;3.28;;;;;;;29.03;28.68;100028.03;10335756;28;20081;-80
2022/07/23 12:59:49;;;;;;;5.55;3.10;;;;;;;28.99;28.71;100035.66;10337423;28;20050;-81
2022/07/23 13:04:51;;;;;;;5.45;3.10;;;;;;;28.82;26.99;100036.28;10337096;28;20098;-81
2022/07/23 13:09:54;;;;;;;4.15;3.10;;;;;;;29.03;27.28;100031.53;10352750;28;20104;-81
2022/07/23 13:14:56;;;;;;;9.20;3.25;;;;;;;29.07;27.43;100031.97;10338192;28;20065;-81
2022/07/23 13:19:58;;;;;;;4.80;3.30;;;;;;;28.96;27.84;100038.78;10351169;28;20062;-81
2022/07/23 13:25:00;;;;;;;6.53;3.08;;;;;;;28.86;29.32;100037.53;10350288;28;20057;-81
2022/07/23 13:30:02;;;;;;;5.82;3.08;;;;;;;28.99;28.60;100038.34;10334666;28;20116;-81
2022/07/23 13:35:05;;;;;;;5.80;3.30;;;;;;;28.89;29.54;100029.88;10336520;28;20050;-80
2022/07/23 13:40:07;;;;;;;4.80;2.90;;;;;;;29.09;28.12;100037.97;10338276;28;20104;-80
2022/07/23 13:45:18;;;;;;;6.32;3.40;;;;;;;29.25;27.82;100042.91;10336116;28;20152;-81
2022/07/23 13:50:20;;;;;;;5.05;2.97;;;;;;;29.43;28.21;100044.97;10334254;28;20116;-80
2022/07/23 13:55:23;;;;;;;5.13;3.03;;;;;;;29.23;27.50;100041.47;10335567;28;20060;-81
2022/07/23 14:00:30;;;;;;;4.30;3.08;;;;;;;29.24;27.36;100035.00;10350504;28;20058;-81
2022/07/23 14:05:52;;;;;;;4.93;2.88;;;;;;;29.26;27.53;100031.09;10336741;28;20128;-81
2022/07/23 14:10:58;;;;;;;5.80;2.90;;;;;;;28.91;27.30;100043.16;10351328;28;20415;-81
2022/07/23 14:16:01;;;;;;;4.10;3.03;;;;;;;29.14;27.59;100037.31;10349115;28;20046;-81
2022/07/23 14:21:03;;;;;;;6.07;3.10;;;;;;;29.32;26.34;100032.09;10334229;28;20054;-81
2022/07/23 14:26:05;;;;;;;4.28;3.00;;;;;;;29.24;26.51;100035.84;10336245;28;20062;-81
2022/07/23 14:31:06;;;;;;;7.03;3.00;;;;;;;29.08;27.63;100039.81;10333953;28;20115;-81
2022/07/23 14:36:22;;;;;;;4.35;2.83;;;;;;;29.19;27.40;100038.38;10348859;28;20466;-81
2022/07/23 14:41:23;;;;;;;5.25;3.00;;;;;;;29.37;25.98;100046.63;10332814;28;20050;-81
2022/07/23 14:46:28;;;;;;;4.03;2.85;;;;;;;29.19;27.07;100032.97;10334566;28;20511;-80
2022/07/23 14:51:31;;;;;;;7.20;2.67;;;;;;;29.28;26.71;100039.78;10331631;28;20046;-81
2022/07/23 14:56:33;;;;;;;4.85;2.72;;;;;;;29.25;26.48;100044.78;10328978;28;20054;-81
2022/07/23 15:01:36;;;;;;;6.15;3.10;;;;;;;28.78;26.12;100040.41;10333060;28;20125;-81
2022/07/23 15:06:38;;;;;;;4.75;2.80;;;;;;;28.94;26.68;100034.66;10349622;28;20145;-81
2022/07/23 15:11:41;;;;;;;5.18;2.70;;;;;;;28.88;26.32;100022.84;10334374;28;20060;-81
2022/07/23 15:16:44;;;;;;;6.40;2.90;;;;;;;28.97;25.89;100029.66;10331361;28;20073;-81
2022/07/23 15:21:48;;;;;;;6.63;2.88;;;;;;;28.73;26.48;100030.25;10346156;28;20046;-81
2022/07/23 15:26:50;;;;;;;6.43;3.17;;;;;;;28.25;26.77;100031.41;10333899;28;20054;-81
2022/07/23 15:31:51;;;;;;;5.72;3.05;;;;;;;28.18;26.74;100026.00;10329190;28;20104;-81
2022/07/23 15:37:00;;;;;;;4.38;2.97;;;;;;;28.51;26.85;100023.41;10330940;28;20570;-82
2022/07/23 15:42:11;;;;;;;4.82;3.20;;;;;;;28.73;26.87;100022.19;10342448;28;20045;-82
2022/07/23 15:47:17;;;;;;;5.95;2.95;;;;;;;28.89;27.86;100031.72;10329873;28;20137;-82
2022/07/23 15:52:19;;;;;;;4.75;2.92;;;;;;;28.92;26.18;100015.19;10331284;28;20054;-81
2022/07/23 15:57:22;;;;;;;5.60;3.15;;;;;;;29.11;26.55;100024.28;10332373;28;20543;-81
2022/07/23 16:02:49;;;;;;;4.85;3.00;;;;;;;29.15;26.94;100020.13;10324477;28;20054;-81
2022/07/23 16:07:51;;;;;;;4.38;2.92;;;;;;;29.25;26.45;100024.06;10332670;28;20526;-82
2022/07/23 16:12:53;;;;;;;4.85;3.10;;;;;;;29.14;27.09;100027.38;10333922;28;20098;-81
2022/07/23 16:17:57;;;;;;;6.25;2.92;;;;;;;29.12;26.67;100024.06;10331359;28;20054;-81
2022/07/23 16:22:59;;;;;;;4.72;3.00;;;;;;;29.03;26.81;100031.53;10344066;28;20050;-81
2022/07/23 16:28:01;;;;;;;4.93;3.08;;;;;;;28.92;26.56;100025.94;10331486;28;20061;-82
2022/07/23 16:33:02;;;;;;;8.07;2.95;;;;;;;28.91;26.50;100033.19;10325804;28;20061;-81
2022/07/23 16:38:07;;;;;;;5.80;3.10;;;;;;;28.90;26.41;100019.94;10348124;28;20050;-81
2022/07/23 16:43:09;;;;;;;5.55;2.83;;;;;;;28.66;26.73;100025.91;10328162;28;20053;-81
2022/07/23 16:48:11;;;;;;;4.32;3.10;;;;;;;28.69;27.12;100034.41;10329465;28;20100;-81
2022/07/23 16:53:12;;;;;;;5.82;2.80;;;;;;;28.63;26.69;100029.00;10333045;28;20042;-81
2022/07/23 16:58:15;;;;;;;4.78;2.90;;;;;;;28.56;27.48;100031.72;10338801;28;20104;-81
2022/07/23 17:03:16;;;;;;;8.80;3.55;;;;;;;28.45;27.88;100029.59;10339361;28;20060;-81
2022/07/23 17:08:18;;;;;;;5.57;2.88;;;;;;;28.39;26.84;100033.13;10356111;28;20050;-81
2022/07/23 17:13:20;;;;;;;3.92;2.63;;;;;;;28.19;27.06;100032.22;10340577;28;20057;-81
2022/07/23 17:18:23;;;;;;;5.43;3.22;;;;;;;28.04;28.10;100047.66;10335649;28;20097;-81
2022/07/23 17:23:24;;;;;;;7.38;3.47;;;;;;;27.81;28.51;100047.97;10353250;28;20112;-81
2022/07/23 17:28:27;;;;;;;10.70;3.70;;;;;;;27.76;29.28;100050.44;10353733;28;20482;-80
2022/07/23 17:33:29;;;;;;;7.03;3.70;;;;;;;27.65;28.53;100063.59;10353973;28;20053;-81
2022/07/23 17:38:30;;;;;;;6.05;2.90;;;;;;;27.52;28.46;100056.28;10335440;28;20207;-82
2022/07/23 17:43:32;;;;;;;7.75;3.20;;;;;;;27.47;29.22;100062.25;10336191;28;20185;-82
2022/07/23 17:49:17;;;;;;;5.20;3.20;;;;;;;27.37;29.51;100064.44;10325291;28;20050;-82
2022/07/23 17:54:21;;;;;;;6.97;3.40;;;;;;;27.38;30.13;100071.47;10326632;28;20161;-82
2022/07/23 17:59:23;;;;;;;7.20;3.22;;;;;;;27.32;30.13;100063.38;10331670;28;20495;-82
2022/07/23 18:04:25;;;;;;;7.38;3.40;;;;;;;27.03;30.47;100071.59;10329669;28;20283;-82
2022/07/23 18:09:27;;;;;;;5.97;3.55;;;;;;;27.00;31.02;100075.47;10351705;28;20042;-82
2022/07/23 18:14:29;;;;;;;5.18;3.42;;;;;;;26.92;31.41;100082.84;10326418;28;20115;-82
2022/07/23 18:19:31;;;;;;;6.25;3.53;;;;;;;26.77;30.63;100085.63;10329762;28;20423;-82
2022/07/23 18:24:34;;;;;;;5.60;3.38;;;;;;;26.75;31.69;100089.50;10334665;28;20054;-82
2022/07/23 18:29:36;;;;;;;6.13;3.25;;;;;;;26.66;30.88;100091.47;10350312;28;20507;-82
2022/07/23 18:34:37;;;;;;;5.28;3.30;;;;;;;26.66;30.75;100092.31;10334925;28;20167;-82
2022/07/23 18:39:41;;;;;;;5.15;3.10;;;;;;;26.41;30.83;100098.19;10332571;28;20124;-82
2022/07/23 18:44:43;;;;;;;6.20;3.10;;;;;;;26.17;31.21;100098.53;10334969;28;20057;-82
2022/07/23 18:49:46;;;;;;;5.18;3.28;;;;;;;26.09;31.94;100106.69;10332126;28;20065;-82
2022/07/23 18:54:48;;;;;;;5.07;3.17;;;;;;;25.86;32.07;100101.38;10334020;28;20046;-82
2022/07/23 18:59:49;;;;;;;7.18;3.83;;;;;;;25.65;32.21;100110.16;10331806;28;20059;-82
2022/07/23 19:04:51;;;;;;;5.53;3.33;;;;;;;25.55;32.98;100111.47;10347073;28;20054;-82
2022/07/23 19:09:53;;;;;;;5.53;3.33;;;;;;;25.33;33.39;100114.97;10348859;28;20058;-82
2022/07/23 19:14:55;;;;;;;7.57;3.42;;;;;;;25.20;34.01;100122.81;10332444;28;20045;-81
2022/07/23 19:19:57;;;;;;;5.25;3.17;;;;;;;24.98;34.23;100132.50;10333385;28;20054;-82
2022/07/23 19:24:59;;;;;;;7.60;3.50;;;;;;;24.73;34.70;100141.75;10333025;28;20050;-81
2022/07/23 19:30:03;;;;;;;8.52;3.60;;;;;;;24.52;35.24;100147.69;10330772;28;20508;-82
2022/07/23 19:35:07;;;;;;;5.32;3.50;;;;;;;24.39;35.57;100149.28;10328403;28;20049;-82
2022/07/23 19:40:09;;;;;;;5.15;3.42;;;;;;;24.02;35.63;100165.94;10339387;28;20050;-81
2022/07/23 19:45:11;;;;;;;6.40;3.78;;;;;;;23.94;36.72;100173.97;10333328;28;20116;-81
2022/07/23 19:50:14;;;;;;;6.13;3.80;;;;;;;23.92;37.10;100179.47;10331182;28;20096;-81
2022/07/23 19:55:16;;;;;;;6.43;3.50;;;;;;;23.83;38.01;100183.16;10348459;28;20120;-82
2022/07/23 20:00:18;;;;;;;5.60;3.60;;;;;;;23.73;37.98;100173.69;10346999;28;20389;-81
2022/07/23 20:05:20;;;;;;;6.03;3.90;;;;;;;23.64;37.82;100175.53;10331415;28;20054;-82
2022/07/23 20:10:23;;;;;;;6.57;4.00;;;;;;;23.33;38.07;100179.88;10336324;28;20054;-82
2022/07/23 20:15:28;;;;;;;5.03;3.47;;;;;;;23.11;38.54;100172.50;10346737;28;20053;-81
2022/07/23 20:20:29;;;;;;;7.15;3.67;;;;;;;23.17;38.11;100183.34;10329797;28;20042;-81
2022/07/23 20:25:31;;;;;;;5.38;3.83;;;;;;;23.11;38.55;100185.84;10345854;28;20495;-82
2022/07/23 20:30:33;;;;;;;8.18;3.60;;;;;;;23.08;38.60;100191.53;10352095;28;20050;-81
2022/07/23 20:35:35;;;;;;;5.32;3.72;;;;;;;22.99;39.14;100198.69;10335967;28;20053;-80
2022/07/23 20:40:37;;;;;;;5.80;3.95;;;;;;;22.87;39.04;100207.16;10334317;28;20050;-81
2022/07/23 20:45:46;;;;;;;;;;;;;;;22.26;40.19;100210.91;10336217;28;20054;-80
2022/07/23 20:50:49;;;;;;;9.55;4.15;;;;;;;22.46;39.59;100217.66;10335463;28;20708;-81
2022/07/23 20:55:51;;;;;;;11.27;5.07;;;;;;;22.29;40.83;100223.91;10337681;28;20046;-80
2022/07/23 21:00:52;;;;;;;5.95;4.35;;;;;;;22.26;41.31;100224.25;10335026;28;20058;-80
2022/07/23 21:05:55;;;;;;;12.13;4.40;;;;;;;22.08;41.81;100228.81;10336990;28;20061;-81
2022/07/23 21:10:57;;;;;;;13.45;4.03;;;;;;;21.93;41.85;100230.34;10335605;28;20491;-81
2022/07/23 21:15:59;;;;;;;7.07;4.05;;;;;;;21.75;42.26;100230.41;10336040;28;20045;-80
2022/07/23 21:21:13;;;;;;;11.43;4.28;;;;;;;21.67;42.38;100234.81;10350853;28;20120;-80
2022/07/23 21:26:16;;;;;;;6.13;4.25;;;;;;;21.63;42.50;100241.44;10333507;28;20137;-80
2022/07/23 21:31:33;;;;;;;9.57;4.60;;;;;;;21.55;43.19;100244.03;10348434;28;20045;-80
2022/07/23 21:36:35;;;;;;;9.60;6.70;;;;;;;21.40;43.54;100251.72;10334164;28;20057;-80
2022/07/23 21:41:37;;;;;;;12.20;5.70;;;;;;;21.27;44.04;100255.75;10337685;28;20058;-80
2022/07/23 21:46:38;;;;;;;12.30;5.25;;;;;;;20.93;44.43;100255.53;10334642;28;20054;-80
2022/07/23 21:51:44;;;;;;;8.98;4.93;;;;;;;20.59;45.40;100263.31;10333963;28;20054;-80
2022/07/23 21:56:46;;;;;;;9.82;4.50;;;;;;;20.69;45.08;100271.22;10336436;28;20471;-79
2022/07/23 22:01:49;;;;;;;10.80;5.40;;;;;;;20.70;45.55;100270.25;10344596;28;20508;-80
2022/07/23 22:06:51;;;;;;;9.25;5.22;;;;;;;20.33;46.03;100280.03;10351488;28;20348;-80
2022/07/23 22:11:53;;;;;;;8.15;5.10;;;;;;;19.98;46.43;100288.66;10333731;28;20057;-79
2022/07/23 22:16:55;;;;;;;9.00;5.05;;;;;;;20.02;46.73;100293.53;10332462;28;20062;-80
2022/07/23 22:21:56;;;;;;;9.57;4.72;;;;;;;20.07;46.25;100293.91;10335444;28;20056;-79
2022/07/23 22:26:58;;;;;;;11.10;5.15;;;;;;;20.03;46.93;100305.81;10336263;28;20056;-80
2022/07/23 22:32:00;;;;;;;10.55;4.75;;;;;;;20.15;47.01;100295.88;10333969;28;20053;-80
2022/07/23 22:37:02;;;;;;;7.80;5.03;;;;;;;20.12;46.94;100296.16;10334710;28;20058;-80
2022/07/23 22:42:04;;;;;;;10.73;4.88;;;;;;;20.15;47.03;100298.53;10333992;28;20526;-80
2022/07/23 22:47:06;;;;;;;11.52;5.40;;;;;;;20.05;47.03;100301.19;10347293;28;20558;-80
2022/07/23 22:52:08;;;;;;;7.65;5.00;;;;;;;19.82;47.56;100293.69;10346068;28;20062;-79
2022/07/23 22:57:11;;;;;;;11.38;6.05;;;;;;;19.80;47.78;100301.78;10346278;28;20193;-80
2022/07/23 23:02:13;;;;;;;8.38;5.15;;;;;;;19.78;48.08;100297.59;10343232;28;20057;-80
2022/07/23 23:07:15;;;;;;;14.05;5.93;;;;;;;19.68;48.45;100297.59;10333221;28;20058;-79
2022/07/23 23:12:17;;;;;;;10.57;6.05;;;;;;;19.39;49.05;100297.59;10349545;28;20467;-79
2022/07/23 23:17:19;;;;;;;10.40;5.60;;;;;;;19.41;49.41;100295.66;10349296;28;20057;-80